Time;durP1;ratioP1;P1;durP2;ratioP2;P2;SDS_P1;SDS_P2;PMS_P1;PMS_P2;Temp;Humidity;BMP_temperature;BMP_pressure;BME280_temperature;BME280_humidity;BME280_pressure;Samples;Min_cycle;Max_cycle;Signal;HPM_P1;HPM_P2
2022/07/07 18:55:01;;;;;;;6.88;2.33;;;20.80;73.00;;;;;;2123488;27;20706;-87
2022/07/07 18:56:22;;;;;;;4.57;2.10;;;20.70;71.80;;;;;;2116233;27;20357;-86
2022/07/07 18:57:23;;;;;;;5.72;1.98;;;20.80;71.40;;;;;;2097099;28;20352;-84
2022/07/07 18:58:24;;;;;;;3.25;2.22;;;20.80;71.10;;;;;;2072420;28;20149;-84
2022/07/07 18:59:26;;;;;;;4.50;2.10;;;20.80;71.20;;;;;;2080151;28;20034;-82
2022/07/07 19:00:27;;;;;;;7.45;1.95;;;20.80;71.40;;;;;;2088471;28;20386;-84
2022/07/07 19:01:29;;;;;;;4.32;2.15;;;20.70;71.20;;;;;;2086367;28;20041;-84
2022/07/07 19:02:30;;;;;;;8.25;2.25;;;20.70;71.00;;;;;;2081255;28;20025;-85
2022/07/07 19:03:31;;;;;;;6.93;2.83;;;20.70;71.20;;;;;;2088360;28;20029;-84
2022/07/07 19:04:32;;;;;;;5.68;2.08;;;20.70;71.50;;;;;;2076420;28;20034;-82
2022/07/07 19:05:33;;;;;;;5.28;2.47;;;20.70;71.40;;;;;;2081382;28;20029;-83
2022/07/07 19:06:34;;;;;;;4.90;1.70;;;20.70;71.60;;;;;;2077765;28;20041;-85
2022/07/07 19:07:35;;;;;;;6.07;2.00;;;20.70;72.10;;;;;;2081173;28;20180;-84
2022/07/07 19:08:36;;;;;;;3.10;2.00;;;20.70;72.20;;;;;;2080574;28;20052;-84
2022/07/07 19:09:37;;;;;;;4.83;2.03;;;20.60;72.20;;;;;;2084043;28;20068;-84
2022/07/07 19:10:39;;;;;;;4.55;2.00;;;20.70;72.00;;;;;;2093204;28;20464;-84
2022/07/07 19:11:41;;;;;;;4.80;2.00;;;20.70;72.10;;;;;;2096836;28;20107;-83
2022/07/07 19:12:42;;;;;;;;;;;20.70;71.80;;;;;;2090060;28;20052;-84
2022/07/07 19:13:44;;;;;;;4.28;1.90;;;20.60;71.70;;;;;;2081693;28;19948;-84
2022/07/07 19:14:45;;;;;;;5.35;2.28;;;20.60;71.90;;;;;;2085031;28;20255;-84
2022/07/07 19:15:46;;;;;;;9.70;2.07;;;20.70;72.20;;;;;;2081316;28;20034;-84
2022/07/07 19:16:47;;;;;;;4.83;2.10;;;20.60;71.80;;;;;;2087605;28;20109;-85
2022/07/07 19:17:49;;;;;;;5.20;2.30;;;20.60;71.80;;;;;;2088303;28;20033;-85
2022/07/07 19:18:49;;;;;;;4.38;2.00;;;20.60;72.10;;;;;;2081509;28;20041;-85
2022/07/07 19:19:50;;;;;;;3.83;2.00;;;20.60;72.20;;;;;;2101343;28;20023;-85
2022/07/07 19:20:52;;;;;;;9.03;2.60;;;20.60;72.10;;;;;;2097694;28;20059;-84
2022/07/07 19:21:54;;;;;;;5.55;2.38;;;20.60;72.20;;;;;;2089236;28;20329;-83
2022/07/07 19:22:55;;;;;;;;;;;20.60;72.20;;;;;;2082982;28;20037;-85
2022/07/07 19:23:56;;;;;;;6.25;2.00;;;20.60;72.20;;;;;;2081190;28;20358;-85
2022/07/07 19:24:57;;;;;;;7.65;2.40;;;20.60;72.10;;;;;;2084993;28;20451;-84
2022/07/07 19:25:57;;;;;;;5.30;2.50;;;20.60;72.10;;;;;;2086757;28;20037;-86
2022/07/07 19:27:01;;;;;;;4.70;2.05;;;20.60;72.30;;;;;;2082765;28;20383;-84
2022/07/07 19:28:02;;;;;;;7.10;2.10;;;20.60;72.40;;;;;;2086496;28;20099;-84
2022/07/07 19:29:04;;;;;;;5.82;2.03;;;20.60;72.40;;;;;;2096413;28;21017;-85
2022/07/07 19:30:07;;;;;;;5.55;2.22;;;20.60;72.40;;;;;;2092593;28;20056;-85
2022/07/07 19:31:09;;;;;;;6.05;2.28;;;20.60;72.30;;;;;;2094480;28;20367;-84
2022/07/07 19:32:13;;;;;;;5.10;2.10;;;20.60;72.30;;;;;;2097120;28;20261;-84
2022/07/07 19:33:17;;;;;;;3.80;1.90;;;20.60;72.50;;;;;;2096942;28;20044;-83
2022/07/07 19:34:20;;;;;;;4.30;1.80;;;20.60;72.70;;;;;;2089365;28;20057;-84
2022/07/07 19:35:22;;;;;;;378.50;265.35;;;20.60;72.70;;;;;;2094112;28;20115;-86
2022/07/07 19:36:25;;;;;;;89.80;55.83;;;20.60;72.50;;;;;;2089617;28;20262;-85
2022/07/07 19:37:26;;;;;;;1852.20;690.70;;;20.60;72.50;;;;;;2091419;28;20269;-87
2022/07/07 19:38:27;;;;;;;196.75;123.82;;;20.60;72.60;;;;;;2096708;28;20262;-83
2022/07/07 19:39:28;;;;;;;112.23;63.43;;;20.60;72.70;;;;;;2084593;28;20029;-84
2022/07/07 19:40:30;;;;;;;19.63;13.20;;;20.60;72.60;;;;;;2082298;28;20045;-84
2022/07/07 19:41:32;;;;;;;21.70;10.98;;;20.60;72.70;;;;;;2088667;28;20020;-84
2022/07/07 19:42:32;;;;;;;12.85;6.30;;;20.60;73.00;;;;;;2101885;28;20248;-84
2022/07/07 19:43:34;;;;;;;10.30;4.67;;;20.60;72.90;;;;;;2097134;28;20021;-85
2022/07/07 19:44:34;;;;;;;9.77;3.47;;;20.60;72.90;;;;;;2090338;28;20031;-84
2022/07/07 19:45:35;;;;;;;7.50;2.43;;;20.60;72.70;;;;;;2079086;28;20034;-85
2022/07/07 19:46:36;;;;;;;4.90;2.13;;;20.60;72.80;;;;;;2088135;28;20040;-84
2022/07/07 19:47:37;;;;;;;8.63;2.47;;;20.60;72.90;;;;;;2079492;28;20534;-84
2022/07/07 19:48:38;;;;;;;5.27;2.00;;;20.60;72.80;;;;;;2079665;28;20117;-84
2022/07/07 19:49:38;;;;;;;4.60;2.13;;;20.60;72.50;;;;;;2088487;28;20125;-83
2022/07/07 19:50:39;;;;;;;3.97;2.17;;;20.60;72.60;;;;;;2077276;28;20487;-84
2022/07/07 19:51:40;;;;;;;7.10;2.20;;;20.60;72.60;;;;;;2077999;28;20057;-84
2022/07/07 19:52:41;;;;;;;3.40;1.87;;;20.60;72.50;;;;;;2086387;28;20022;-84
2022/07/07 19:53:42;;;;;;;6.23;2.07;;;20.60;72.60;;;;;;2096917;28;20020;-84
2022/07/07 19:54:43;;;;;;;6.32;2.65;;;20.60;72.60;;;;;;2088919;28;20068;-83
2022/07/07 19:55:44;;;;;;;3.83;2.17;;;20.60;72.70;;;;;;2091495;28;20441;-83
2022/07/07 19:56:45;;;;;;;7.27;2.00;;;20.60;73.00;;;;;;2097012;28;20064;-84
2022/07/07 19:57:46;;;;;;;3.00;1.80;;;20.60;72.90;;;;;;2098897;28;20031;-85
2022/07/07 19:58:48;;;;;;;4.37;2.20;;;20.60;72.80;;;;;;2088630;28;20498;-84
2022/07/07 19:59:48;;;;;;;;;;;20.60;73.20;;;;;;2096984;28;20066;-84
2022/07/07 20:00:50;;;;;;;5.45;2.20;;;20.60;73.00;;;;;;2104581;28;19942;-84
2022/07/07 20:01:51;;;;;;;8.02;1.85;;;20.60;72.90;;;;;;2103986;28;20020;-85
2022/07/07 20:02:52;;;;;;;5.38;1.88;;;20.60;72.90;;;;;;2105062;28;20087;-84
2022/07/07 20:03:52;;;;;;;4.93;1.98;;;20.60;72.90;;;;;;2106258;28;20016;-84
2022/07/07 20:04:53;;;;;;;6.70;1.90;;;20.60;73.00;;;;;;2096035;28;20035;-85
2022/07/07 20:05:54;;;;;;;5.33;2.10;;;20.60;73.00;;;;;;2082780;28;20550;-85
2022/07/07 20:06:55;;;;;;;7.23;2.27;;;20.60;73.10;;;;;;2079717;28;20049;-85
2022/07/07 20:07:56;;;;;;;6.82;2.05;;;20.60;72.90;;;;;;2090966;28;20269;-84
2022/07/07 20:08:57;;;;;;;5.57;2.00;;;20.60;73.10;;;;;;2091268;28;20128;-85
2022/07/07 20:09:58;;;;;;;6.30;2.20;;;20.50;73.10;;;;;;2082387;28;20384;-85
2022/07/07 20:10:59;;;;;;;5.97;2.07;;;20.60;73.10;;;;;;2089925;28;20032;-85
2022/07/07 20:12:00;;;;;;;5.50;2.50;;;20.60;73.10;;;;;;2098287;28;20075;-84
2022/07/07 20:13:01;;;;;;;7.83;3.40;;;20.60;73.20;;;;;;2099392;28;20036;-84
2022/07/07 20:14:02;;;;;;;4.55;2.35;;;20.60;73.20;;;;;;2091729;28;20021;-84
2022/07/07 20:15:04;;;;;;;7.43;2.67;;;20.60;73.30;;;;;;2083458;28;20199;-83
2022/07/07 20:16:05;;;;;;;4.65;2.15;;;20.60;73.60;;;;;;2088362;28;20027;-85
2022/07/07 20:17:06;;;;;;;4.90;2.07;;;20.60;73.50;;;;;;2083352;28;20258;-84
2022/07/07 20:18:08;;;;;;;13.00;2.60;;;20.60;73.50;;;;;;2085221;28;20087;-85
2022/07/07 20:19:08;;;;;;;6.88;2.60;;;20.60;73.50;;;;;;2097616;28;20021;-84
2022/07/07 20:20:10;;;;;;;4.97;2.47;;;20.50;73.40;;;;;;2083451;28;20036;-84
2022/07/07 20:21:15;;;;;;;5.35;2.55;;;20.60;73.40;;;;;;2085958;28;20029;-85
2022/07/07 20:22:16;;;;;;;7.13;2.50;;;20.50;73.50;;;;;;2088207;28;20022;-85
2022/07/07 20:23:16;;;;;;;7.30;3.10;;;20.50;74.40;;;;;;2089100;28;20100;-85
2022/07/07 20:24:17;;;;;;;6.40;2.97;;;20.60;73.80;;;;;;2098325;28;20115;-85
2022/07/07 20:25:21;;;;;;;6.93;2.70;;;20.60;73.70;;;;;;2096300;28;20029;-85
2022/07/07 20:26:23;;;;;;;7.13;2.58;;;20.50;73.60;;;;;;2107693;28;20095;-85
2022/07/07 20:27:23;;;;;;;9.25;2.92;;;20.50;73.60;;;;;;2091213;28;20021;-83
2022/07/07 20:28:24;;;;;;;4.97;2.93;;;20.60;73.90;;;;;;2091091;28;20017;-83
2022/07/07 20:29:26;;;;;;;8.63;2.70;;;20.50;73.60;;;;;;2082199;28;20025;-85
2022/07/07 20:30:27;;;;;;;7.93;2.50;;;20.50;73.50;;;;;;2091059;28;20151;-85
2022/07/07 20:31:28;;;;;;;5.03;2.40;;;20.50;73.70;;;;;;2086796;28;20024;-84
2022/07/07 20:32:30;;;;;;;7.28;2.80;;;20.50;73.70;;;;;;2080551;28;20426;-85
2022/07/07 20:33:31;;;;;;;;;;;20.50;73.70;;;;;;2081713;28;20030;-85
2022/07/07 20:34:32;;;;;;;6.30;2.92;;;20.50;73.70;;;;;;2090867;28;19962;-84
2022/07/07 20:35:32;;;;;;;7.73;2.87;;;20.50;73.50;;;;;;2091017;28;20503;-83
2022/07/07 20:36:33;;;;;;;7.03;2.37;;;20.50;73.50;;;;;;2095749;28;20451;-86
2022/07/07 20:37:34;;;;;;;6.13;2.50;;;20.50;73.60;;;;;;2090130;28;20501;-83
2022/07/07 20:38:36;;;;;;;5.53;2.20;;;20.50;73.50;;;;;;2082970;28;20053;-84
2022/07/07 20:39:37;;;;;;;3.78;1.95;;;20.50;73.60;;;;;;2083557;28;20124;-84
2022/07/07 20:40:38;;;;;;;4.17;2.17;;;20.50;73.80;;;;;;2089775;28;20036;-85
2022/07/07 20:41:39;;;;;;;3.53;2.23;;;20.50;73.60;;;;;;2091045;28;20024;-84
2022/07/07 20:42:40;;;;;;;9.90;2.33;;;20.50;73.60;;;;;;2083147;28;20036;-84
2022/07/07 20:43:41;;;;;;;6.18;2.33;;;20.50;73.60;;;;;;2083055;28;20045;-84
2022/07/07 20:44:42;;;;;;;11.03;3.07;;;20.50;73.50;;;;;;2075709;28;20033;-84
2022/07/07 20:45:42;;;;;;;10.35;3.58;;;20.50;73.60;;;;;;2075736;28;20259;-89
2022/07/07 20:46:43;;;;;;;6.37;2.40;;;20.50;73.50;;;;;;2096558;28;20079;-92
2022/07/07 20:47:44;;;;;;;10.17;2.77;;;20.50;73.50;;;;;;2091004;28;20032;-86
2022/07/07 20:48:45;;;;;;;8.77;2.40;;;20.50;73.60;;;;;;2097514;28;20066;-87
2022/07/07 20:49:46;;;;;;;7.67;2.33;;;20.50;73.60;;;;;;2098377;28;20028;-86
2022/07/07 20:50:48;;;;;;;7.60;2.63;;;20.50;73.70;;;;;;2098220;28;20078;-87
2022/07/07 20:51:49;;;;;;;11.23;2.83;;;20.50;73.60;;;;;;2090872;28;20033;-86
2022/07/07 20:52:49;;;;;;;18.58;2.60;;;20.50;73.50;;;;;;2090590;28;20719;-87
2022/07/07 20:53:50;;;;;;;7.53;2.30;;;20.50;73.50;;;;;;2083589;28;20080;-86
2022/07/07 20:54:51;;;;;;;6.13;1.87;;;20.50;73.50;;;;;;2091170;28;20047;-85
2022/07/07 20:55:52;;;;;;;9.50;2.13;;;20.50;73.50;;;;;;2081609;28;20096;-85
2022/07/07 20:56:53;;;;;;;9.80;2.30;;;20.50;73.50;;;;;;2098245;28;20109;-86
2022/07/07 20:57:55;;;;;;;6.57;2.53;;;20.50;73.30;;;;;;2089977;28;20167;-85
2022/07/07 20:58:56;;;;;;;7.47;2.53;;;20.40;73.40;;;;;;2082862;28;20025;-85
2022/07/07 20:59:56;;;;;;;11.57;2.70;;;20.40;73.30;;;;;;2081129;28;20041;-85
2022/07/07 21:00:57;;;;;;;13.47;2.80;;;20.40;73.20;;;;;;2082696;28;20747;-85
2022/07/07 21:02:01;;;;;;;10.77;2.33;;;20.50;73.50;;;;;;2080211;28;20045;-84
2022/07/07 21:03:02;;;;;;;5.53;2.20;;;20.40;73.30;;;;;;2082659;28;20013;-85
2022/07/07 21:04:03;;;;;;;9.40;2.57;;;20.40;73.20;;;;;;2078012;28;20037;-85
2022/07/07 21:05:04;;;;;;;5.43;2.00;;;20.40;73.20;;;;;;2075001;28;20018;-85
2022/07/07 21:06:06;;;;;;;6.70;2.25;;;20.40;73.30;;;;;;2089906;28;20059;-85
2022/07/07 21:07:09;;;;;;;4.78;1.85;;;20.40;73.30;;;;;;2091093;28;20120;-85
2022/07/07 21:08:10;;;;;;;7.78;2.10;;;20.40;73.20;;;;;;2090699;28;20024;-85
2022/07/07 21:09:11;;;;;;;7.60;2.33;;;20.40;73.30;;;;;;2077672;28;20058;-85
2022/07/07 21:10:13;;;;;;;9.95;2.30;;;20.40;73.30;;;;;;2094792;28;20024;-85
2022/07/07 21:11:13;;;;;;;6.65;2.13;;;20.40;73.20;;;;;;2094701;28;20120;-85
2022/07/07 21:12:14;;;;;;;6.90;2.47;;;20.40;73.20;;;;;;2081802;28;20025;-85
2022/07/07 21:13:18;;;;;;;8.53;2.17;;;20.40;73.30;;;;;;2077382;28;20087;-85
2022/07/07 21:14:18;;;;;;;5.38;2.47;;;20.40;73.30;;;;;;2083226;28;20123;-85
2022/07/07 21:15:19;;;;;;;6.57;1.97;;;20.40;73.30;;;;;;2080521;28;20337;-86
2022/07/07 21:16:20;;;;;;;6.87;2.33;;;20.40;73.50;;;;;;2079176;28;20026;-86
2022/07/07 21:17:22;;;;;;;5.07;1.97;;;20.40;73.30;;;;;;2079731;28;20045;-85
2022/07/07 21:18:22;;;;;;;4.85;2.30;;;20.40;73.30;;;;;;2079158;28;20112;-85
2022/07/07 21:19:23;;;;;;;7.50;3.40;;;20.40;73.30;;;;;;2089810;28;20025;-85
2022/07/07 21:20:24;;;;;;;8.80;2.00;;;20.40;73.20;;;;;;2093108;28;20017;-86
2022/07/07 21:21:25;;;;;;;3.47;1.87;;;20.40;73.30;;;;;;2090444;28;20037;-85
2022/07/07 21:22:26;;;;;;;8.13;2.27;;;20.40;73.30;;;;;;2082739;28;20443;-85
2022/07/07 21:23:27;;;;;;;6.57;2.57;;;20.40;73.30;;;;;;2090909;28;20024;-87
2022/07/07 21:24:27;;;;;;;6.00;2.20;;;20.40;73.30;;;;;;2089586;28;20529;-86
2022/07/07 21:25:28;;;;;;;5.33;2.30;;;20.40;73.30;;;;;;2081271;28;20090;-86
2022/07/07 21:26:30;;;;;;;5.87;2.20;;;20.40;73.30;;;;;;2090787;28;20064;-85
2022/07/07 21:27:31;;;;;;;5.25;2.28;;;20.40;73.40;;;;;;2091042;28;20072;-85
2022/07/07 21:28:32;;;;;;;7.47;2.10;;;20.40;73.40;;;;;;2092182;28;20036;-85
2022/07/07 21:29:33;;;;;;;4.43;2.33;;;20.40;73.30;;;;;;2090424;28;20048;-85
2022/07/07 21:30:34;;;;;;;7.30;2.00;;;20.40;73.30;;;;;;2097779;28;20025;-85
2022/07/07 21:31:35;;;;;;;6.22;2.25;;;20.40;73.30;;;;;;2081443;28;20026;-86
2022/07/07 21:32:37;;;;;;;3.00;1.90;;;20.40;73.30;;;;;;2090301;28;20515;-85
2022/07/07 21:33:38;;;;;;;;;;;20.40;73.30;;;;;;2091509;28;20108;-85
2022/07/07 21:34:40;;;;;;;6.10;1.90;;;20.40;74.10;;;;;;2089536;28;19909;-85
2022/07/07 21:35:41;;;;;;;3.33;2.08;;;20.40;73.30;;;;;;2082487;28;20083;-85
2022/07/07 21:36:42;;;;;;;4.80;2.10;;;20.40;73.30;;;;;;2079063;28;20073;-85
2022/07/07 21:37:42;;;;;;;3.53;1.75;;;20.30;73.20;;;;;;2081115;28;20028;-85
2022/07/07 21:38:44;;;;;;;2.07;1.67;;;20.30;73.30;;;;;;2082090;28;20036;-85
2022/07/07 21:39:45;;;;;;;5.18;2.30;;;20.30;73.30;;;;;;2083691;28;20061;-86
2022/07/07 21:40:46;;;;;;;8.27;2.20;;;20.30;73.30;;;;;;2091415;28;20254;-85
2022/07/07 21:41:49;;;;;;;6.45;2.13;;;20.30;73.30;;;;;;2087494;28;20223;-86
2022/07/07 21:42:50;;;;;;;4.90;1.75;;;20.30;73.30;;;;;;2082285;28;20438;-85
2022/07/07 21:43:50;;;;;;;3.80;1.73;;;20.30;73.20;;;;;;2082383;28;20381;-85
2022/07/07 21:44:51;;;;;;;5.50;2.57;;;20.30;73.30;;;;;;2080959;28;20044;-86
2022/07/07 21:45:53;;;;;;;6.43;2.17;;;20.30;73.30;;;;;;2078627;28;20370;-88
2022/07/07 21:46:53;;;;;;;4.50;1.95;;;20.30;73.30;;;;;;2081836;28;20080;-89
2022/07/07 21:47:54;;;;;;;3.80;1.53;;;20.30;73.30;;;;;;2081411;28;20060;-88
2022/07/07 21:48:55;;;;;;;3.23;1.80;;;20.30;73.40;;;;;;2081966;28;20037;-88
2022/07/07 21:49:56;;;;;;;3.23;1.73;;;20.30;73.30;;;;;;2081988;28;20029;-87
2022/07/07 21:50:57;;;;;;;5.53;1.83;;;20.30;73.30;;;;;;2085686;28;20048;-87
2022/07/07 21:51:59;;;;;;;6.53;1.80;;;20.30;73.40;;;;;;2090524;28;20067;-88
2022/07/07 21:52:59;;;;;;;;;;;20.30;73.30;;;;;;2089826;28;20086;-87
2022/07/07 21:54:01;;;;;;;6.32;2.15;;;20.30;73.20;;;;;;2087223;28;20414;-89
2022/07/07 21:55:01;;;;;;;4.03;1.70;;;20.30;73.30;;;;;;2089809;28;20020;-87
2022/07/07 21:56:02;;;;;;;8.20;2.03;;;20.30;73.30;;;;;;2097540;28;20041;-88
2022/07/07 21:57:04;;;;;;;8.80;1.80;;;20.30;73.30;;;;;;2098671;28;20428;-87
2022/07/07 21:58:05;;;;;;;3.25;1.90;;;20.30;73.30;;;;;;2095840;28;20061;-87
2022/07/07 21:59:05;;;;;;;4.33;1.50;;;20.30;73.40;;;;;;2087585;28;20021;-87
2022/07/07 22:00:07;;;;;;;3.77;1.90;;;20.30;73.30;;;;;;2090441;28;20348;-87
2022/07/07 22:01:13;;;;;;;3.92;1.67;;;20.30;73.30;;;;;;2090347;28;20025;-88
2022/07/07 22:02:14;;;;;;;6.43;2.13;;;20.30;74.00;;;;;;2091084;28;20033;-88
2022/07/07 22:03:14;;;;;;;6.87;1.87;;;20.30;73.40;;;;;;2090706;28;20036;-88
2022/07/07 22:07:01;;;;;;;2.88;1.90;;;20.20;73.10;;;;;;2105512;28;20591;-88
2022/07/07 22:08:22;;;;;;;6.13;2.10;;;20.30;73.30;;;;;;2107259;28;20347;-87
2022/07/07 22:09:23;;;;;;;4.78;2.33;;;20.20;73.20;;;;;;2093573;28;20261;-87
2022/07/07 22:10:24;;;;;;;5.97;2.08;;;20.20;73.20;;;;;;2077118;28;20264;-87
2022/07/07 22:11:25;;;;;;;7.53;2.07;;;20.20;73.10;;;;;;2080506;28;20523;-87
2022/07/07 22:12:28;;;;;;;7.20;2.60;;;20.20;73.20;;;;;;2082096;28;20037;-87
2022/07/07 22:13:29;;;;;;;7.50;1.98;;;20.20;73.00;;;;;;2082577;28;20100;-87
2022/07/07 22:14:29;;;;;;;5.28;1.90;;;20.20;73.20;;;;;;2090304;28;20731;-87
2022/07/07 22:15:33;;;;;;;7.23;2.30;;;20.20;73.20;;;;;;2086757;28;20029;-87
2022/07/07 22:16:33;;;;;;;5.13;2.47;;;20.20;73.10;;;;;;2088522;28;20125;-87
2022/07/07 22:17:34;;;;;;;8.05;2.15;;;20.20;73.20;;;;;;2084310;28;20762;-87
2022/07/07 22:18:36;;;;;;;6.07;2.23;;;20.20;73.30;;;;;;2082127;28;20033;-88
2022/07/07 22:19:37;;;;;;;5.25;2.83;;;20.20;73.20;;;;;;2082545;28;20112;-87
2022/07/07 22:20:38;;;;;;;6.22;2.08;;;20.20;73.20;;;;;;2084335;28;20293;-87
2022/07/07 22:21:39;;;;;;;4.50;2.17;;;20.20;73.30;;;;;;2098987;28;20031;-87
2022/07/07 22:22:40;;;;;;;4.97;2.50;;;20.20;73.30;;;;;;2097582;28;20024;-87
2022/07/07 22:23:40;;;;;;;3.67;1.80;;;20.20;73.30;;;;;;2090301;28;20025;-87
2022/07/07 22:24:43;;;;;;;4.30;2.03;;;20.20;73.40;;;;;;2081194;28;20029;-87
2022/07/07 22:25:43;;;;;;;4.60;2.50;;;20.20;73.40;;;;;;2081775;28;20017;-88
2022/07/07 22:26:45;;;;;;;6.43;2.27;;;20.20;73.40;;;;;;2087680;28;20032;-87
2022/07/07 22:27:50;;;;;;;5.18;1.85;;;20.20;73.30;;;;;;2090245;28;20052;-87
2022/07/07 22:28:51;;;;;;;5.75;2.13;;;20.20;73.50;;;;;;2082095;28;20038;-87
2022/07/07 22:29:52;;;;;;;3.90;2.38;;;20.20;73.50;;;;;;2082433;28;20362;-88
2022/07/07 22:30:53;;;;;;;8.17;2.90;;;20.20;73.40;;;;;;2089400;28;20040;-88
2022/07/07 22:31:55;;;;;;;6.13;2.42;;;20.20;73.40;;;;;;2090852;28;20032;-87
2022/07/07 22:32:58;;;;;;;5.15;2.08;;;20.20;73.30;;;;;;2090829;28;20099;-88
2022/07/07 22:34:00;;;;;;;5.82;1.98;;;20.20;73.40;;;;;;2083037;28;20033;-88
2022/07/07 22:35:02;;;;;;;10.40;2.40;;;20.20;73.50;;;;;;2082640;28;20254;-88
2022/07/07 22:36:02;;;;;;;;;;;20.20;73.50;;;;;;2076992;28;20032;-87
2022/07/07 22:37:04;;;;;;;11.30;2.15;;;20.20;73.40;;;;;;2090806;28;20070;-88
2022/07/07 22:38:05;;;;;;;5.53;2.38;;;20.10;73.40;;;;;;2096100;28;20024;-87
2022/07/07 22:39:07;;;;;;;3.97;2.22;;;20.20;73.50;;;;;;2091284;28;20077;-88
2022/07/07 22:40:08;;;;;;;3.90;2.20;;;20.20;73.50;;;;;;2107431;28;20028;-87
2022/07/07 22:41:09;;;;;;;4.60;2.25;;;20.20;73.40;;;;;;2099322;28;20135;-87
2022/07/07 22:42:10;;;;;;;4.50;2.10;;;20.20;73.40;;;;;;2099359;28;20050;-87
2022/07/07 22:43:12;;;;;;;6.20;2.28;;;20.10;73.50;;;;;;2090946;28;20429;-88
2022/07/07 22:44:13;;;;;;;5.85;2.53;;;20.10;73.30;;;;;;2089944;28;20027;-87
2022/07/07 22:45:14;;;;;;;4.63;2.25;;;20.20;73.50;;;;;;2090386;28;20355;-87
2022/07/07 22:46:14;;;;;;;8.17;2.53;;;20.10;73.50;;;;;;2090862;28;20068;-88
2022/07/07 22:47:15;;;;;;;8.90;2.40;;;20.10;73.40;;;;;;2090892;28;20376;-88
2022/07/07 22:48:19;;;;;;;7.93;2.97;;;20.10;73.50;;;;;;2082526;28;20029;-87
2022/07/07 22:49:20;;;;;;;6.68;2.80;;;20.10;73.40;;;;;;2083442;28;20029;-87
2022/07/07 22:50:21;;;;;;;6.70;2.70;;;20.10;73.50;;;;;;2090588;28;20628;-88
2022/07/07 22:51:23;;;;;;;5.80;2.73;;;20.10;73.60;;;;;;2090138;28;20266;-88
2022/07/07 22:52:23;;;;;;;5.45;2.20;;;20.10;73.60;;;;;;2082524;28;20271;-88
2022/07/07 22:53:24;;;;;;;8.37;2.47;;;20.10;73.60;;;;;;2090807;28;20474;-87
2022/07/07 22:54:25;;;;;;;8.53;2.60;;;20.10;73.80;;;;;;2090817;28;20091;-88
2022/07/07 22:55:26;;;;;;;5.63;2.85;;;20.10;73.80;;;;;;2082122;28;20063;-88
2022/07/07 22:56:26;;;;;;;5.90;2.73;;;20.10;73.90;;;;;;2082513;28;20124;-87
2022/07/07 22:57:27;;;;;;;9.40;2.75;;;20.10;74.00;;;;;;2090435;28;20056;-88
2022/07/07 22:58:28;;;;;;;9.30;3.13;;;20.10;74.10;;;;;;2088298;28;20107;-87
2022/07/07 22:59:29;;;;;;;7.82;2.95;;;20.10;73.90;;;;;;2099073;28;20051;-88
2022/07/07 23:00:30;;;;;;;7.87;2.43;;;20.10;74.80;;;;;;2099194;28;20028;-88
2022/07/07 23:01:31;;;;;;;7.85;3.88;;;20.10;74.10;;;;;;2089975;28;20170;-88
2022/07/07 23:02:32;;;;;;;7.00;2.63;;;20.00;73.80;;;;;;2083514;28;20063;-87
2022/07/07 23:03:35;;;;;;;7.07;2.80;;;20.10;73.90;;;;;;2082436;28;20033;-88
2022/07/07 23:04:36;;;;;;;6.22;2.67;;;20.00;73.90;;;;;;2086339;28;20429;-88
2022/07/07 23:05:37;;;;;;;4.65;2.67;;;20.10;74.00;;;;;;2095141;28;20286;-87
2022/07/07 23:06:38;;;;;;;6.87;3.07;;;20.00;73.80;;;;;;2086562;28;20040;-88
2022/07/07 23:07:39;;;;;;;8.37;3.10;;;20.00;74.50;;;;;;2090687;28;20071;-87
2022/07/07 23:08:39;;;;;;;7.03;2.80;;;20.00;73.80;;;;;;2080370;28;20267;-87
2022/07/07 23:09:40;;;;;;;8.00;3.10;;;20.00;73.80;;;;;;2082487;28;20061;-87
2022/07/07 23:10:41;;;;;;;6.03;3.00;;;20.00;73.70;;;;;;2082327;28;20037;-87
2022/07/07 23:11:42;;;;;;;5.97;3.20;;;20.00;73.90;;;;;;2075429;28;20037;-88
2022/07/07 23:12:43;;;;;;;7.33;2.60;;;20.00;74.00;;;;;;2087854;28;20075;-88
2022/07/07 23:13:43;;;;;;;6.53;3.10;;;20.00;73.90;;;;;;2093894;28;20060;-87
2022/07/07 23:14:44;;;;;;;7.00;3.10;;;20.00;73.90;;;;;;2099050;28;20052;-88
2022/07/07 23:15:45;;;;;;;5.07;2.90;;;20.00;73.90;;;;;;2082506;28;20025;-87
2022/07/07 23:16:46;;;;;;;5.93;2.77;;;20.00;73.90;;;;;;2082359;28;20072;-87
2022/07/07 23:17:46;;;;;;;6.73;2.77;;;20.00;74.00;;;;;;2087209;28;20036;-87
2022/07/07 23:18:47;;;;;;;11.57;2.90;;;20.00;74.00;;;;;;2088838;28;20121;-88
2022/07/07 23:19:52;;;;;;;10.63;3.20;;;20.00;74.00;;;;;;2082370;28;20037;-87
2022/07/07 23:20:53;;;;;;;6.82;2.88;;;20.00;73.90;;;;;;2091930;28;20356;-88
2022/07/07 23:21:54;;;;;;;6.63;3.05;;;20.00;74.00;;;;;;2084299;28;20267;-87
2022/07/07 23:22:55;;;;;;;6.93;3.23;;;20.00;74.10;;;;;;2083107;28;20560;-88
2022/07/07 23:23:56;;;;;;;5.00;2.90;;;20.00;74.10;;;;;;2090824;28;20063;-88
2022/07/07 23:24:56;;;;;;;7.20;2.67;;;20.00;74.10;;;;;;2095785;28;20640;-87
2022/07/07 23:25:58;;;;;;;11.40;3.10;;;20.00;74.10;;;;;;2090240;28;20094;-87
2022/07/07 23:26:59;;;;;;;5.93;2.95;;;20.00;74.10;;;;;;2082367;28;20038;-87
2022/07/07 23:28:01;;;;;;;8.15;2.85;;;20.00;74.10;;;;;;2092253;28;20096;-88
2022/07/07 23:29:03;;;;;;;6.93;2.63;;;20.00;74.10;;;;;;2107160;28;20059;-87
2022/07/07 23:30:04;;;;;;;;;;;20.00;74.10;;;;;;2095804;28;20087;-87
2022/07/07 23:31:04;;;;;;;14.18;2.90;;;20.00;74.90;;;;;;2098212;28;19908;-87
2022/07/07 23:32:06;;;;;;;6.40;2.92;;;20.00;74.10;;;;;;2097416;28;20820;-87
2022/07/07 23:33:08;;;;;;;6.30;2.97;;;20.00;74.10;;;;;;2089921;28;20028;-87
2022/07/07 23:34:09;;;;;;;6.35;3.20;;;19.90;74.10;;;;;;2087433;28;20034;-88
2022/07/07 23:35:10;;;;;;;7.88;3.53;;;20.00;74.20;;;;;;2089125;28;20274;-87
2022/07/07 23:36:11;;;;;;;4.57;3.03;;;20.00;74.20;;;;;;2080911;28;20029;-87
2022/07/07 23:37:11;;;;;;;7.63;3.17;;;20.00;74.20;;;;;;2090381;28;20179;-87
2022/07/07 23:38:12;;;;;;;10.07;3.60;;;20.00;74.10;;;;;;2081463;28;20018;-87
2022/07/07 23:39:13;;;;;;;6.10;3.03;;;20.00;74.20;;;;;;2098880;28;20347;-87
2022/07/07 23:40:14;;;;;;;11.27;3.23;;;20.00;74.20;;;;;;2087209;28;20140;-88
2022/07/07 23:41:15;;;;;;;5.27;3.47;;;20.00;74.30;;;;;;2086065;28;20021;-88
2022/07/07 23:42:15;;;;;;;7.90;3.40;;;20.00;74.30;;;;;;2088268;28;20036;-88
2022/07/07 23:43:16;;;;;;;5.47;3.05;;;20.00;74.30;;;;;;2092215;28;20418;-87
2022/07/07 23:44:17;;;;;;;8.00;3.53;;;20.00;74.30;;;;;;2091601;28;20055;-87
2022/07/07 23:45:18;;;;;;;7.47;3.30;;;19.90;74.30;;;;;;2092110;28;20036;-88
2022/07/07 23:46:18;;;;;;;8.73;3.40;;;19.90;74.40;;;;;;2092099;28;20057;-88
2022/07/07 23:47:20;;;;;;;10.80;3.38;;;19.90;74.30;;;;;;2097830;28;20438;-88
2022/07/07 23:48:20;;;;;;;8.48;3.30;;;19.90;74.30;;;;;;2092146;28;20063;-88
2022/07/07 23:49:21;;;;;;;6.33;3.17;;;19.90;74.30;;;;;;2083915;28;20096;-88
2022/07/07 23:50:24;;;;;;;4.57;3.03;;;19.90;74.30;;;;;;2078497;28;20029;-87
2022/07/07 23:51:25;;;;;;;6.18;3.10;;;19.90;74.30;;;;;;2090214;28;20352;-87
2022/07/07 23:52:25;;;;;;;6.90;3.20;;;19.90;74.30;;;;;;2095853;28;20359;-88
2022/07/07 23:53:26;;;;;;;6.37;3.07;;;19.90;74.30;;;;;;2084100;28;20038;-87
2022/07/07 23:54:27;;;;;;;8.73;4.13;;;19.90;74.20;;;;;;2083782;28;20034;-88
2022/07/07 23:55:28;;;;;;;6.77;3.23;;;19.90;74.30;;;;;;2091903;28;20103;-88
2022/07/07 23:56:29;;;;;;;10.03;3.47;;;19.90;74.40;;;;;;2092254;28;20071;-87
2022/07/07 23:57:29;;;;;;;6.63;3.40;;;19.90;74.40;;;;;;2092228;28;20052;-87
2022/07/07 23:58:30;;;;;;;8.90;3.23;;;19.90;74.40;;;;;;2091590;28;20035;-87
2022/07/07 23:59:31;;;;;;;6.67;3.90;;;19.90;74.40;;;;;;2087707;28;20415;-87
